Time;durP1;ratioP1;P1;durP2;ratioP2;P2;SDS_P1;SDS_P2;PMS_P1;PMS_P2;Temp;Humidity;BMP_temperature;BMP_pressure;BME280_temperature;BME280_humidity;BME280_pressure;Samples;Min_cycle;Max_cycle;Signal;HPM_P1;HPM_P2
2023/10/03 00:00:28;;;;;;;4.07;2.45;;;;;;;-143.29;100.00;62188.47;5054746;28;20025;-85
2023/10/03 00:03:00;;;;;;;5.60;2.50;;;;;;;-143.29;100.00;62188.47;5054653;28;20025;-86
2023/10/03 00:05:31;;;;;;;3.58;2.30;;;;;;;-143.29;100.00;62188.47;5054575;28;20116;-85
2023/10/03 00:07:58;;;;;;;11.10;2.30;;;;;;;-143.29;100.00;62188.47;5054419;28;20021;-86
2023/10/03 00:10:25;;;;;;;2.50;1.73;;;;;;;-143.29;100.00;62188.47;5054704;28;20031;-85
2023/10/03 00:12:51;;;;;;;3.00;2.05;;;;;;;-143.29;100.00;62188.47;5054527;28;20059;-86
2023/10/03 00:15:24;;;;;;;3.92;2.20;;;;;;;-143.29;100.00;62188.47;5054602;28;20029;-86
2023/10/03 00:17:50;;;;;;;2.88;2.45;;;;;;;-143.29;100.00;62188.47;5054910;28;20051;-85
2023/10/03 00:20:17;;;;;;;3.50;2.50;;;;;;;-143.29;100.00;62188.47;5054295;28;20025;-85
2023/10/03 00:22:44;;;;;;;3.88;2.47;;;;;;;-143.29;100.00;62188.47;5054165;28;20017;-86
2023/10/03 00:25:17;;;;;;;5.38;2.72;;;;;;;-143.29;100.00;62188.47;5054379;28;20107;-85
2023/10/03 00:27:45;;;;;;;3.70;2.60;;;;;;;-143.29;100.00;62188.47;5054382;28;20017;-86
2023/10/03 00:30:11;;;;;;;4.63;2.38;;;;;;;-143.29;100.00;62188.47;5054216;28;20021;-85
2023/10/03 00:32:40;;;;;;;7.53;2.83;;;;;;;-143.29;100.00;62188.47;5053975;28;20035;-86
2023/10/03 00:35:06;;;;;;;3.88;2.30;;;;;;;-143.29;100.00;62188.47;5054175;28;20040;-86
2023/10/03 00:37:31;;;;;;;4.35;2.50;;;;;;;-143.29;100.00;62188.47;5054443;28;20025;-85
2023/10/03 00:39:57;;;;;;;4.43;2.28;;;;;;;-143.29;100.00;62188.47;5054199;28;20406;-86
2023/10/03 00:42:24;;;;;;;5.03;2.30;;;;;;;-143.29;100.00;62188.47;5053772;28;20028;-85
2023/10/03 00:44:49;;;;;;;3.00;1.95;;;;;;;-143.29;100.00;62188.47;5054097;28;20103;-86
2023/10/03 00:47:14;;;;;;;4.15;1.92;;;;;;;-143.29;100.00;62188.47;5053885;28;20577;-86
2023/10/03 00:49:41;;;;;;;3.85;1.88;;;;;;;-143.29;100.00;62188.47;5053869;28;20032;-86
2023/10/03 00:52:09;;;;;;;4.93;1.52;;;;;;;-143.29;100.00;62188.47;5053826;28;20024;-85
2023/10/03 00:54:36;;;;;;;4.63;1.20;;;;;;;-143.29;100.00;62188.47;5052818;28;20112;-86
2023/10/03 00:57:02;;;;;;;5.90;1.45;;;;;;;-143.29;100.00;62188.47;5053712;28;20379;-86
2023/10/03 00:59:28;;;;;;;2.28;1.40;;;;;;;-143.29;100.00;62188.47;5053586;28;20532;-85
2023/10/03 01:02:02;;;;;;;10.25;1.52;;;;;;;-143.29;100.00;62188.47;5035668;28;20079;-86
2023/10/03 01:04:31;;;;;;;3.95;1.48;;;;;;;-143.29;100.00;62188.47;5053660;28;20390;-86
2023/10/03 01:06:58;;;;;;;3.65;1.42;;;;;;;-143.29;100.00;62188.47;5053378;28;20094;-86
2023/10/03 01:09:27;;;;;;;3.05;1.88;;;;;;;-143.29;100.00;62188.47;5035622;28;20033;-86
2023/10/03 01:11:53;;;;;;;4.05;1.30;;;;;;;-143.29;100.00;62188.47;5053227;28;20082;-86
2023/10/03 01:14:19;;;;;;;2.10;1.13;;;;;;;-143.29;100.00;62188.47;5053551;28;20025;-86
2023/10/03 01:16:45;;;;;;;3.25;1.23;;;;;;;-143.29;100.00;62188.47;5053311;28;20028;-86
2023/10/03 01:19:29;;;;;;;3.38;1.48;;;;;;;-143.29;100.00;62188.47;5053117;28;20029;-86
2023/10/03 01:21:55;;;;;;;4.32;1.60;;;;;;;-143.29;100.00;62188.47;5053136;28;20039;-86
2023/10/03 01:24:20;;;;;;;2.50;1.15;;;;;;;-143.29;100.00;62188.47;5053284;28;20025;-85
2023/10/03 01:26:47;;;;;;;3.10;1.40;;;;;;;-143.29;100.00;62188.47;5053143;28;20024;-86
2023/10/03 01:29:12;;;;;;;2.65;1.38;;;;;;;-143.29;100.00;62188.47;5053002;28;20429;-86
2023/10/03 01:31:40;;;;;;;6.15;1.42;;;;;;;-143.29;100.00;62188.47;5052916;28;20050;-86
2023/10/03 01:34:05;;;;;;;2.65;1.30;;;;;;;-143.29;100.00;62188.47;5053217;28;20047;-86
2023/10/03 01:36:31;;;;;;;3.70;1.85;;;;;;;-143.29;100.00;62188.47;5052923;28;20025;-86
2023/10/03 01:38:56;;;;;;;2.70;1.30;;;;;;;-143.29;100.00;62188.47;5053057;28;20043;-86
2023/10/03 01:41:22;;;;;;;2.05;1.13;;;;;;;-143.29;100.00;62188.47;5052802;28;20029;-86
2023/10/03 01:43:48;;;;;;;2.67;0.88;;;;;;;-143.29;100.00;62188.47;5052723;28;20055;-86
2023/10/03 01:46:13;;;;;;;2.85;1.15;;;;;;;-143.29;100.00;62188.47;5052794;28;20475;-86
2023/10/03 01:48:39;;;;;;;4.75;1.55;;;;;;;-143.29;100.00;62188.47;5052862;28;20036;-86
2023/10/03 01:51:05;;;;;;;2.55;1.30;;;;;;;-143.29;100.00;62188.47;5053086;28;20357;-85
2023/10/03 01:53:31;;;;;;;4.47;1.60;;;;;;;-143.29;100.00;62188.47;5052307;28;20025;-86
2023/10/03 01:55:57;;;;;;;2.53;1.20;;;;;;;-143.29;100.00;62188.47;5052721;28;20423;-86
2023/10/03 01:58:24;;;;;;;2.92;1.38;;;;;;;-143.29;100.00;62188.47;5052519;28;20021;-86
2023/10/03 02:00:52;;;;;;;4.35;1.65;;;;;;;-143.29;100.00;62188.47;5052481;28;20083;-86
2023/10/03 02:03:19;;;;;;;6.55;1.60;;;;;;;-143.29;100.00;62188.47;5052403;28;20079;-86
2023/10/03 02:05:45;;;;;;;2.45;1.02;;;;;;;-143.29;100.00;62188.47;5052113;28;20064;-86
2023/10/03 02:08:15;;;;;;;4.75;1.73;;;;;;;-143.29;100.00;62188.47;5052527;28;20510;-86
2023/10/03 02:10:45;;;;;;;3.42;1.40;;;;;;;-143.29;100.00;62188.47;5050702;28;20368;-86
2023/10/03 02:13:14;;;;;;;6.63;1.70;;;;;;;-143.29;100.00;62188.47;5051678;28;20029;-86
2023/10/03 02:15:48;;;;;;;3.95;1.30;;;;;;;-143.29;100.00;62188.47;5052299;28;20017;-86
2023/10/03 02:18:18;;;;;;;4.30;1.88;;;;;;;-143.29;100.00;62188.47;5052361;28;20033;-86
2023/10/03 02:20:53;;;;;;;3.78;1.80;;;;;;;-143.29;100.00;62188.47;5052143;28;20025;-86
2023/10/03 02:23:23;;;;;;;3.83;2.17;;;;;;;-143.29;100.00;62188.47;5051832;28;20021;-86
2023/10/03 02:25:54;;;;;;;5.72;2.60;;;;;;;-143.29;100.00;62188.47;5052115;28;20031;-85
2023/10/03 02:28:20;;;;;;;6.95;2.42;;;;;;;-143.29;100.00;62188.47;5052008;28;20049;-86
2023/10/03 02:30:48;;;;;;;4.55;2.40;;;;;;;-143.29;100.00;62188.47;5052276;28;20083;-86
2023/10/03 02:33:15;;;;;;;3.95;2.40;;;;;;;-143.29;100.00;62188.47;5051861;28;20036;-86
2023/10/03 02:35:44;;;;;;;7.13;2.55;;;;;;;-143.29;100.00;62188.47;5052125;28;20053;-86
2023/10/03 02:38:20;;;;;;;4.03;1.98;;;;;;;-143.29;100.00;62188.47;5052008;28;20045;-86
2023/10/03 02:40:46;;;;;;;4.80;2.35;;;;;;;-143.29;100.00;62188.47;5051836;28;20434;-86
2023/10/03 02:43:11;;;;;;;4.28;2.90;;;;;;;-143.29;100.00;62188.47;5051867;28;20025;-86
2023/10/03 02:45:38;;;;;;;2.75;1.95;;;;;;;-143.29;100.00;62188.47;5033956;28;20116;-86
2023/10/03 02:48:09;;;;;;;4.30;1.80;;;;;;;-143.29;100.00;62188.47;5034033;28;20016;-86
2023/10/03 02:50:35;;;;;;;5.43;1.90;;;;;;;-143.29;100.00;62188.47;5051775;28;20064;-86
2023/10/03 02:53:11;;;;;;;5.65;2.17;;;;;;;-143.29;100.00;62188.47;5051586;28;20055;-86
2023/10/03 02:55:36;;;;;;;3.58;1.83;;;;;;;-143.29;100.00;62188.47;5051603;28;20052;-86
2023/10/03 02:58:02;;;;;;;4.70;2.60;;;;;;;-143.29;100.00;62188.47;5051644;28;20055;-86
2023/10/03 03:00:27;;;;;;;2.63;1.80;;;;;;;-143.29;100.00;62188.47;5051726;28;20025;-86
2023/10/03 03:02:54;;;;;;;4.85;2.08;;;;;;;-143.29;100.00;62188.47;5051540;28;20463;-86
2023/10/03 03:05:22;;;;;;;2.20;1.35;;;;;;;-143.29;100.00;62188.47;5051582;28;20548;-86
2023/10/03 03:07:49;;;;;;;2.78;1.65;;;;;;;-143.29;100.00;62188.47;5051466;28;20112;-86
2023/10/03 03:10:17;;;;;;;3.40;1.80;;;;;;;-143.29;100.00;62188.47;5051767;28;20547;-86
2023/10/03 03:12:44;;;;;;;4.88;1.98;;;;;;;-143.29;100.00;62188.47;5051544;28;20036;-86
2023/10/03 03:15:23;;;;;;;3.97;2.22;;;;;;;-143.29;100.00;62188.47;5051582;28;20029;-87
2023/10/03 03:17:52;;;;;;;3.67;2.08;;;;;;;-143.29;100.00;62188.47;5051821;28;20111;-86
2023/10/03 03:20:18;;;;;;;7.78;2.70;;;;;;;-143.29;100.00;62188.47;5055511;28;20025;-86
2023/10/03 03:22:47;;;;;;;3.78;3.08;;;;;;;-143.29;100.00;62188.47;5055609;28;20051;-86
2023/10/03 03:25:21;;;;;;;4.35;2.38;;;;;;;-143.29;100.00;62188.47;5055611;28;20052;-86
2023/10/03 03:27:47;;;;;;;7.15;2.28;;;;;;;-143.29;100.00;62188.47;5037566;28;20517;-86
2023/10/03 03:32:58;;;;;;;3.85;2.65;;;;;;;-143.29;100.00;62188.47;5055300;28;20029;-86
2023/10/03 03:35:26;;;;;;;3.30;2.17;;;;;;;-143.29;100.00;62188.47;5055530;28;20028;-86
2023/10/03 03:37:57;;;;;;;3.40;2.00;;;;;;;-143.29;100.00;62188.47;5055351;28;20111;-86
2023/10/03 03:40:30;;;;;;;3.35;1.80;;;;;;;-143.29;100.00;62188.47;5055137;28;20374;-86
2023/10/03 03:43:00;;;;;;;3.92;2.53;;;;;;;-143.29;100.00;62188.47;5055014;28;20104;-86
2023/10/03 03:45:26;;;;;;;3.13;2.00;;;;;;;-143.29;100.00;62188.47;5055045;28;20025;-86
2023/10/03 03:47:52;;;;;;;6.53;2.42;;;;;;;-143.29;100.00;62188.47;5055139;28;20028;-86
2023/10/03 03:50:18;;;;;;;3.22;2.10;;;;;;;-143.29;100.00;62188.47;5055181;28;20062;-86
2023/10/03 03:52:43;;;;;;;6.05;2.35;;;;;;;-143.29;100.00;62188.47;5054990;28;20112;-86
2023/10/03 03:55:11;;;;;;;3.83;2.10;;;;;;;-143.29;100.00;62188.47;5054733;28;20033;-86
2023/10/03 03:57:36;;;;;;;5.07;2.10;;;;;;;-143.29;100.00;62188.47;5054932;28;20033;-85
2023/10/03 04:00:11;;;;;;;7.40;2.38;;;;;;;-143.29;100.00;62188.47;5054912;28;20372;-86
2023/10/03 04:02:37;;;;;;;3.70;1.90;;;;;;;-143.29;100.00;62188.47;5054757;28;20082;-86
2023/10/03 04:05:07;;;;;;;4.60;2.00;;;;;;;-143.29;100.00;62188.47;5054828;28;20516;-86
2023/10/03 04:07:33;;;;;;;3.22;2.03;;;;;;;-143.29;100.00;62188.47;5054465;28;20036;-86
2023/10/03 04:09:58;;;;;;;4.18;1.77;;;;;;;-143.29;100.00;62188.47;5054735;28;20029;-86
2023/10/03 04:12:25;;;;;;;3.85;1.88;;;;;;;-143.29;100.00;62188.47;5054493;28;20029;-86
2023/10/03 04:14:50;;;;;;;5.90;2.28;;;;;;;-143.29;100.00;62188.47;5036660;28;20391;-86
2023/10/03 04:17:15;;;;;;;5.15;1.90;;;;;;;-143.29;100.00;62188.47;5054748;28;20021;-86
2023/10/03 04:19:41;;;;;;;8.35;2.13;;;;;;;-143.29;100.00;62188.47;5054133;28;20025;-86
2023/10/03 04:22:06;;;;;;;4.95;1.95;;;;;;;-143.29;100.00;62188.47;5054399;28;20021;-85
2023/10/03 04:24:32;;;;;;;4.82;1.77;;;;;;;-143.29;100.00;62188.47;5054528;28;20047;-86
2023/10/03 04:26:59;;;;;;;5.53;2.33;;;;;;;-143.29;100.00;62188.47;5054435;28;20036;-85
2023/10/03 04:29:24;;;;;;;3.60;2.33;;;;;;;-143.29;100.00;62188.47;5054115;28;20028;-85
2023/10/03 04:31:49;;;;;;;4.38;2.15;;;;;;;-143.29;100.00;62188.47;5054220;28;20390;-85
2023/10/03 04:34:18;;;;;;;3.70;2.00;;;;;;;-143.29;100.00;62188.47;5054311;28;20020;-86
2023/10/03 04:36:45;;;;;;;5.22;1.92;;;;;;;-143.29;100.00;62188.47;5054156;28;20046;-86
2023/10/03 04:39:11;;;;;;;3.97;2.22;;;;;;;-143.29;100.00;62188.47;5053926;28;20530;-85
2023/10/03 04:41:42;;;;;;;8.82;2.50;;;;;;;-143.29;100.00;62188.47;5054149;28;20372;-85
2023/10/03 04:44:08;;;;;;;7.37;2.00;;;;;;;-143.29;100.00;62188.47;5053972;28;20031;-85
2023/10/03 04:46:33;;;;;;;4.03;2.10;;;;;;;-143.29;100.00;62188.47;5036150;28;20597;-85
2023/10/03 04:49:00;;;;;;;6.30;1.88;;;;;;;-143.29;100.00;62188.47;5053904;28;20154;-85
2023/10/03 04:51:26;;;;;;;7.38;2.15;;;;;;;-143.29;100.00;62188.47;5053786;28;20074;-85
2023/10/03 04:53:52;;;;;;;4.50;2.33;;;;;;;-143.29;100.00;62188.47;5053873;28;20028;-85
2023/10/03 04:56:17;;;;;;;2.80;1.85;;;;;;;-143.29;100.00;62188.47;5054172;28;20116;-86
2023/10/03 04:58:43;;;;;;;5.13;2.08;;;;;;;-143.29;100.00;62188.47;5053822;28;20376;-86
2023/10/03 05:01:08;;;;;;;4.40;2.20;;;;;;;-143.29;100.00;62188.47;5053742;28;20028;-86
2023/10/03 05:03:34;;;;;;;4.18;1.98;;;;;;;-143.29;100.00;62188.47;5053509;28;20445;-85
2023/10/03 05:06:01;;;;;;;5.95;2.17;;;;;;;-143.29;100.00;62188.47;5053584;28;20032;-85
2023/10/03 05:08:27;;;;;;;5.60;2.25;;;;;;;-143.29;100.00;62188.47;5053652;28;20161;-86
2023/10/03 05:10:54;;;;;;;6.53;2.28;;;;;;;-143.29;100.00;62188.47;5053669;28;20029;-86
2023/10/03 05:13:19;;;;;;;5.57;2.40;;;;;;;-143.29;100.00;62188.47;5053395;28;20029;-85
2023/10/03 05:15:45;;;;;;;5.50;2.10;;;;;;;-143.29;100.00;62188.47;5053456;28;20024;-85
2023/10/03 05:18:10;;;;;;;4.85;2.25;;;;;;;-143.29;100.00;62188.47;5053506;28;20040;-85
2023/10/03 05:20:37;;;;;;;7.65;2.38;;;;;;;-143.29;100.00;62188.47;5053137;28;20059;-85
2023/10/03 05:23:04;;;;;;;4.95;2.45;;;;;;;-143.29;100.00;62188.47;5053284;28;20035;-85
2023/10/03 05:25:30;;;;;;;7.20;2.28;;;;;;;-143.29;100.00;62188.47;5053245;28;20099;-86
2023/10/03 05:27:56;;;;;;;12.65;2.20;;;;;;;-143.29;100.00;62188.47;5053213;28;20556;-85
2023/10/03 05:30:23;;;;;;;6.68;2.40;;;;;;;-143.29;100.00;62188.47;5053337;28;20025;-86
2023/10/03 05:32:48;;;;;;;3.88;1.95;;;;;;;-143.29;100.00;62188.47;5052900;28;20029;-86
2023/10/03 05:35:13;;;;;;;3.88;2.33;;;;;;;-143.29;100.00;62188.47;5053132;28;20545;-86
2023/10/03 05:37:42;;;;;;;3.50;1.80;;;;;;;-143.29;100.00;62188.47;5052983;28;20044;-86
2023/10/03 05:40:11;;;;;;;5.10;2.15;;;;;;;-143.29;100.00;62188.47;5053171;28;20116;-86
2023/10/03 05:42:41;;;;;;;3.95;2.42;;;;;;;-143.29;100.00;62188.47;5052565;28;20035;-86
2023/10/03 05:45:12;;;;;;;6.60;2.40;;;;;;;-143.29;100.00;62188.47;5052886;28;20024;-85
2023/10/03 05:47:45;;;;;;;7.32;2.80;;;;;;;-143.29;100.00;62188.47;5052784;28;20028;-86
2023/10/03 05:50:23;;;;;;;5.25;1.88;;;;;;;-143.29;100.00;62188.47;5052715;28;20024;-86
2023/10/03 05:52:49;;;;;;;4.13;1.73;;;;;;;-143.29;100.00;62188.47;5052584;28;20048;-86
2023/10/03 05:55:15;;;;;;;6.10;2.30;;;;;;;-143.29;100.00;62188.47;5052681;28;20021;-86
2023/10/03 05:57:42;;;;;;;4.30;1.98;;;;;;;-143.29;100.00;62188.47;5052581;28;20031;-86
2023/10/03 06:00:16;;;;;;;6.82;1.98;;;;;;;-143.29;100.00;62188.47;5052631;28;20036;-86
2023/10/03 06:02:43;;;;;;;6.10;2.08;;;;;;;-143.29;100.00;62188.47;5052711;28;20024;-86
2023/10/03 06:05:09;;;;;;;5.40;2.33;;;;;;;-143.29;100.00;62188.47;5052494;28;20029;-86
2023/10/03 06:07:38;;;;;;;4.47;2.00;;;;;;;-143.29;100.00;62188.47;5052412;28;20056;-86
2023/10/03 06:10:04;;;;;;;5.68;2.20;;;;;;;-143.29;100.00;62188.47;5052467;28;20029;-85
2023/10/03 06:12:33;;;;;;;7.40;2.50;;;;;;;-143.29;100.00;62188.47;5052199;28;20028;-86
2023/10/03 06:14:58;;;;;;;4.28;2.15;;;;;;;-143.29;100.00;62188.47;5034600;28;20087;-86
2023/10/03 06:17:24;;;;;;;7.95;2.50;;;;;;;-143.29;100.00;62188.47;5052222;28;20025;-86
2023/10/03 06:19:52;;;;;;;4.75;2.28;;;;;;;-143.29;100.00;62188.47;5034251;28;20035;-86
2023/10/03 06:22:17;;;;;;;3.53;1.80;;;;;;;-143.29;100.00;62188.47;5052243;28;20066;-85
2023/10/03 06:24:43;;;;;;;4.82;2.05;;;;;;;-143.29;100.00;62188.47;5052631;28;20064;-86
2023/10/03 06:27:09;;;;;;;7.32;2.65;;;;;;;-143.29;100.00;62188.47;5051825;28;20025;-86
2023/10/03 06:29:35;;;;;;;4.70;1.92;;;;;;;-143.29;100.00;62188.47;5052112;28;20013;-85
2023/10/03 06:32:01;;;;;;;6.60;2.30;;;;;;;-143.29;100.00;62188.47;5051885;28;20079;-85
2023/10/03 06:34:26;;;;;;;6.93;2.05;;;;;;;-143.29;100.00;62188.47;5052256;28;20025;-85
2023/10/03 06:36:52;;;;;;;10.20;3.85;;;;;;;-143.29;100.00;62188.47;5051900;28;20340;-86
2023/10/03 06:39:17;;;;;;;5.05;2.53;;;;;;;-143.29;100.00;62188.47;5052003;28;20502;-86
2023/10/03 06:41:43;;;;;;;8.00;2.65;;;;;;;-143.29;100.00;62188.47;5033358;28;20025;-86
2023/10/03 06:44:08;;;;;;;3.53;1.95;;;;;;;-143.29;100.00;62188.47;5033344;28;20175;-86
2023/10/03 06:46:34;;;;;;;10.23;2.33;;;;;;;-143.29;100.00;62188.47;5050181;28;20490;-85
2023/10/03 06:49:00;;;;;;;5.68;2.50;;;;;;;-143.29;100.00;62188.47;5051062;28;20036;-86
2023/10/03 06:51:26;;;;;;;7.15;3.05;;;;;;;-143.29;100.00;62188.47;5033836;28;20025;-86
2023/10/03 06:53:52;;;;;;;7.93;3.30;;;;;;;-143.29;100.00;62188.47;5050445;28;20098;-85
2023/10/03 06:56:19;;;;;;;9.52;3.05;;;;;;;-143.29;100.00;62188.47;5050786;28;20056;-85
2023/10/03 06:58:46;;;;;;;7.40;3.45;;;;;;;-143.29;100.00;62188.47;5033548;28;20029;-86
2023/10/03 07:01:12;;;;;;;5.10;2.45;;;;;;;-143.29;100.00;62188.47;5050526;28;20032;-85
2023/10/03 07:03:40;;;;;;;6.53;2.80;;;;;;;-143.29;100.00;62188.47;5051385;28;20021;-87
2023/10/03 07:06:06;;;;;;;9.93;3.08;;;;;;;-143.29;100.00;62188.47;5051231;28;20033;-86
2023/10/03 07:08:31;;;;;;;6.82;2.75;;;;;;;-143.29;100.00;62188.47;5033637;28;20036;-87
2023/10/03 07:10:57;;;;;;;5.32;2.40;;;;;;;-143.29;100.00;62188.47;5033112;28;20029;-86
2023/10/03 07:13:24;;;;;;;8.25;2.92;;;;;;;-143.29;100.00;62188.47;5050763;28;20025;-85
2023/10/03 07:15:49;;;;;;;5.38;2.45;;;;;;;-143.29;100.00;62188.47;5058831;28;20120;-85
2023/10/03 07:18:15;;;;;;;9.70;2.67;;;;;;;-143.29;100.00;62188.47;5052687;28;20096;-86
2023/10/03 07:20:40;;;;;;;9.93;2.58;;;;;;;-143.29;100.00;62188.47;5043453;28;20036;-85
2023/10/03 07:23:06;;;;;;;6.32;2.30;;;;;;;-143.29;100.00;62188.47;5050813;28;20474;-86
2023/10/03 07:25:32;;;;;;;11.30;2.88;;;;;;;-143.29;100.00;62188.47;5050763;28;20467;-86
2023/10/03 07:27:57;;;;;;;9.18;2.70;;;;;;;-143.29;100.00;62188.47;5051220;28;20078;-86
2023/10/03 07:30:23;;;;;;;5.28;2.63;;;;;;;-143.29;100.00;62188.47;5050121;28;20467;-86
2023/10/03 07:32:48;;;;;;;5.28;2.08;;;;;;;-143.29;100.00;62188.47;5032490;28;20021;-86
2023/10/03 07:35:17;;;;;;;5.43;2.40;;;;;;;-143.29;100.00;62188.47;5050823;28;20029;-88
2023/10/03 07:37:42;;;;;;;9.23;2.15;;;;;;;-143.29;100.00;62188.47;5033020;28;20171;-87
2023/10/03 07:40:09;;;;;;;14.30;2.90;;;;;;;-143.29;100.00;62188.47;5032949;28;20191;-87
2023/10/03 07:42:34;;;;;;;9.13;2.65;;;;;;;-143.29;100.00;62188.47;5050487;28;20017;-85
2023/10/03 07:44:59;;;;;;;14.48;4.25;;;;;;;-143.29;100.00;62188.47;5050648;28;20025;-86
2023/10/03 07:47:25;;;;;;;11.43;2.72;;;;;;;-143.29;100.00;62188.47;5050181;28;20032;-87
2023/10/03 07:49:51;;;;;;;10.30;2.92;;;;;;;-143.29;100.00;62188.47;5051133;28;20047;-86
2023/10/03 07:52:20;;;;;;;14.07;2.72;;;;;;;-143.29;100.00;62188.47;5050863;28;20025;-87
2023/10/03 07:54:49;;;;;;;10.10;2.25;;;;;;;-143.29;100.00;62188.47;5050939;28;20040;-87
2023/10/03 07:57:15;;;;;;;10.20;1.90;;;;;;;-143.29;100.00;62188.47;5051006;28;20078;-87
2023/10/03 07:59:43;;;;;;;7.60;2.22;;;;;;;-143.29;100.00;62188.47;5033108;28;20021;-87
2023/10/03 08:02:10;;;;;;;10.23;1.90;;;;;;;-143.29;100.00;62188.47;5050293;28;20368;-87
2023/10/03 08:04:37;;;;;;;10.93;2.03;;;;;;;-143.29;100.00;62188.47;5052641;28;20025;-87
2023/10/03 08:07:04;;;;;;;9.68;2.30;;;;;;;-143.29;100.00;62188.47;5054661;28;20023;-87
2023/10/03 08:09:31;;;;;;;7.47;2.15;;;;;;;-143.29;100.00;62188.47;5054616;28;20025;-87
2023/10/03 08:11:57;;;;;;;9.27;2.28;;;;;;;-143.29;100.00;62188.47;5054396;28;20029;-88
2023/10/03 08:14:23;;;;;;;7.25;2.30;;;;;;;-143.29;100.00;62188.47;5036665;28;20029;-88
2023/10/03 08:16:49;;;;;;;14.32;2.45;;;;;;;-143.29;100.00;62188.47;5035829;28;20029;-87
2023/10/03 08:19:21;;;;;;;8.93;2.40;;;;;;;-143.29;100.00;62188.47;5054299;28;20499;-87
2023/10/03 08:21:48;;;;;;;12.07;3.47;;;;;;;-143.29;100.00;62188.47;5053476;28;20083;-87
2023/10/03 08:24:18;;;;;;;12.02;2.83;;;;;;;-143.29;100.00;62188.47;5054280;28;20479;-88
2023/10/03 08:26:46;;;;;;;10.23;2.92;;;;;;;-143.29;100.00;62188.47;5028997;28;20033;-88
2023/10/03 08:29:21;;;;;;;9.57;2.30;;;;;;;-143.29;100.00;62188.47;5034422;28;20022;-87
2023/10/03 08:31:56;;;;;;;13.52;3.10;;;;;;;-143.29;100.00;62188.47;5033397;28;20083;-88
2023/10/03 08:34:22;;;;;;;13.75;2.90;;;;;;;-143.29;100.00;62188.47;5034672;28;20076;-88
2023/10/03 08:36:53;;;;;;;8.98;2.65;;;;;;;-143.29;100.00;62188.47;5053985;28;20486;-87
2023/10/03 08:39:19;;;;;;;10.73;2.90;;;;;;;-143.29;100.00;62188.47;5054098;28;20028;-88
2023/10/03 08:42:12;;;;;;;13.35;3.58;;;;;;;-143.29;100.00;62188.47;5053459;28;20025;-88
2023/10/03 08:44:59;;;;;;;10.93;2.40;;;;;;;-143.29;100.00;62188.47;5053477;28;20127;-88
2023/10/03 08:47:30;;;;;;;9.20;2.83;;;;;;;-143.29;100.00;62188.47;5052705;28;20036;-87
2023/10/03 08:50:00;;;;;;;8.10;1.93;;;;;;;-143.29;100.00;62188.47;5044915;28;20218;-88
2023/10/03 08:52:39;;;;;;;8.25;2.15;;;;;;;-143.29;100.00;62188.47;5033628;28;20083;-87
2023/10/03 08:55:08;;;;;;;6.07;2.00;;;;;;;-143.29;100.00;62188.47;5050623;28;20474;-88
2023/10/03 08:57:35;;;;;;;7.60;2.22;;;;;;;-143.29;100.00;62188.47;5053599;28;20104;-88
2023/10/03 09:00:03;;;;;;;5.47;1.40;;;;;;;-143.29;100.00;62188.47;5055351;28;20105;-88
2023/10/03 09:02:32;;;;;;;6.53;2.15;;;;;;;-143.29;100.00;62188.47;5072581;28;20083;-88
2023/10/03 09:05:00;;;;;;;6.55;1.42;;;;;;;-143.29;100.00;62188.47;5073493;28;20024;-88
2023/10/03 09:07:25;;;;;;;3.72;1.20;;;;;;;-143.29;100.00;62188.47;5055205;28;20483;-87
2023/10/03 09:09:51;;;;;;;4.55;1.10;;;;;;;-143.29;100.00;62188.47;5053487;28;20029;-89
2023/10/03 09:12:20;;;;;;;4.95;1.88;;;;;;;-143.29;100.00;62188.47;5065831;28;20032;-93
2023/10/03 09:14:53;;;;;;;5.75;1.13;;;;;;;-143.29;100.00;62188.47;5073305;28;20383;-92
2023/10/03 09:17:22;;;;;;;6.28;1.02;;;;;;;-143.29;100.00;62188.47;5071764;28;20027;-89
2023/10/03 09:19:50;;;;;;;7.28;1.50;;;;;;;-143.29;100.00;62188.47;5073084;28;20032;-88
2023/10/03 09:22:37;;;;;;;8.30;1.30;;;;;;;-143.29;100.00;62188.47;5073128;28;20082;-88
2023/10/03 09:25:07;;;;;;;7.47;1.50;;;;;;;-143.29;100.00;62188.47;5073354;28;20025;-88
2023/10/03 09:27:32;;;;;;;8.82;1.25;;;;;;;-143.29;100.00;62188.47;5073044;28;20017;-88
2023/10/03 09:29:58;;;;;;;9.85;1.70;;;;;;;-143.29;100.00;62188.47;5073078;28;20031;-88
2023/10/03 09:32:24;;;;;;;7.15;1.10;;;;;;;-143.29;100.00;62188.47;5072162;28;20522;-88
2023/10/03 09:34:56;;;;;;;6.78;1.60;;;;;;;-143.29;100.00;62188.47;5072586;28;20163;-88
2023/10/03 09:37:28;;;;;;;9.10;1.45;;;;;;;-143.29;100.00;62188.47;5072826;28;20031;-88
2023/10/03 09:39:59;;;;;;;8.07;1.50;;;;;;;-143.29;100.00;62188.47;5072727;28;20399;-88
2023/10/03 09:42:25;;;;;;;15.50;2.37;;;;;;;-143.29;100.00;62188.47;5067448;28;20032;-87
2023/10/03 09:44:51;;;;;;;8.27;1.55;;;;;;;-143.29;100.00;62188.47;5054744;28;20024;-86
2023/10/03 09:47:18;;;;;;;10.40;2.00;;;;;;;-143.29;100.00;62188.47;5051686;28;20383;-89
2023/10/03 09:49:47;;;;;;;3.85;1.38;;;;;;;-143.29;100.00;62188.47;5052686;28;20025;-87
2023/10/03 09:52:22;;;;;;;5.75;1.05;;;;;;;-143.29;100.00;62188.47;5067424;28;20028;-90
2023/10/03 09:54:53;;;;;;;5.93;1.10;;;;;;;-143.29;100.00;62188.47;5072643;28;20104;-90
2023/10/03 09:57:21;;;;;;;6.60;1.03;;;;;;;-143.29;100.00;62188.47;5072599;28;20051;-89
2023/10/03 09:59:48;;;;;;;4.53;1.10;;;;;;;-143.29;100.00;62188.47;5054579;28;20028;-89
2023/10/03 10:02:30;;;;;;;5.32;0.93;;;;;;;-143.29;100.00;62188.47;5057286;28;20029;-89
2023/10/03 10:04:59;;;;;;;;;;;;;;;-143.29;100.00;62188.47;5052894;28;20479;-88
2023/10/03 10:07:34;;;;;;;3.35;1.23;;;;;;;-143.29;100.00;62188.47;5052283;28;20020;-89
2023/10/03 10:10:12;;;;;;;5.65;1.42;;;;;;;-143.29;100.00;62188.47;5052361;28;20029;-88
2023/10/03 10:13:28;;;;;;;4.18;0.75;;;;;;;-143.29;100.00;62188.47;5052416;28;20382;-88
2023/10/03 10:16:13;;;;;;;3.85;1.08;;;;;;;-143.29;100.00;62188.47;5034354;28;20033;-89
2023/10/03 10:18:45;;;;;;;5.80;1.02;;;;;;;-143.29;100.00;62188.47;5052208;28;20419;-88
2023/10/03 10:21:36;;;;;;;4.75;0.90;;;;;;;-143.29;100.00;62188.47;5047763;28;20063;-89
2023/10/03 10:24:20;;;;;;;;;;;;;;;-143.29;100.00;62188.47;5034579;28;20372;-89
2023/10/03 10:26:52;;;;;;;4.57;1.15;;;;;;;-143.29;100.00;62188.47;5051631;28;19913;-89
2023/10/03 10:29:19;;;;;;;5.15;1.40;;;;;;;-143.29;100.00;62188.47;5052053;28;20032;-89
2023/10/03 10:31:49;;;;;;;7.68;1.55;;;;;;;-143.29;100.00;62188.47;5051276;28;20025;-87
2023/10/03 10:34:18;;;;;;;5.30;1.27;;;;;;;-143.29;100.00;62188.47;5051876;28;20518;-89
2023/10/03 10:37:09;;;;;;;5.80;1.20;;;;;;;-143.29;100.00;62188.47;5034175;28;20078;-88
2023/10/03 10:40:09;;;;;;;4.05;0.82;;;;;;;-143.29;100.00;62188.47;5033542;28;20035;-88
2023/10/03 10:43:08;;;;;;;5.95;1.30;;;;;;;-143.29;100.00;62188.47;5051897;28;20494;-88
2023/10/03 10:45:41;;;;;;;7.65;1.05;;;;;;;-143.29;100.00;62188.47;5032950;28;20116;-90
2023/10/03 10:48:07;;;;;;;3.53;0.90;;;;;;;-143.29;100.00;62188.47;5051240;28;20060;-87
2023/10/03 10:51:01;;;;;;;4.57;1.23;;;;;;;-143.29;100.00;62188.47;5034723;28;20079;-88
2023/10/03 10:53:39;;;;;;;5.50;1.10;;;;;;;-143.29;100.00;62188.47;5072134;28;20257;-88
2023/10/03 10:56:08;;;;;;;5.53;1.00;;;;;;;-143.29;100.00;62188.47;5071434;28;20063;-89
2023/10/03 10:59:07;;;;;;;12.98;1.38;;;;;;;-143.29;100.00;62188.47;5056183;28;20029;-88
2023/10/03 11:01:38;;;;;;;4.43;1.40;;;;;;;-143.29;100.00;62188.47;5069765;28;20435;-88
2023/10/03 11:04:05;;;;;;;7.13;1.38;;;;;;;-143.29;100.00;62188.47;5043347;28;20112;-88
2023/10/03 11:06:30;;;;;;;6.13;1.40;;;;;;;-143.29;100.00;62188.47;5033400;28;20056;-89
2023/10/03 11:08:55;;;;;;;6.65;1.40;;;;;;;-143.29;100.00;62188.47;5051509;28;20071;-88
2023/10/03 11:11:21;;;;;;;4.35;1.20;;;;;;;-143.29;100.00;62188.47;5032827;28;20033;-88
2023/10/03 11:13:48;;;;;;;8.38;1.40;;;;;;;-143.29;100.00;62188.47;5033585;28;20033;-89
2023/10/03 11:16:25;;;;;;;5.43;1.58;;;;;;;-143.29;100.00;62188.47;5049967;28;20037;-90
2023/10/03 11:18:52;;;;;;;8.35;1.10;;;;;;;-143.29;100.00;62188.47;5032711;28;20064;-90